sensor_id;sensor_type;location;lat;lon;timestamp;temperature;humidity
66831;DHT22;53739;44.224;22.528;2022-08-21T00:00:34;589.60;2432.00
66831;DHT22;53739;44.224;22.528;2022-08-21T00:03:06;589.50;2432.00
66831;DHT22;53739;44.224;22.528;2022-08-21T00:05:36;589.50;2432.00
66831;DHT22;53739;44.224;22.528;2022-08-21T00:08:03;589.40;2406.40
66831;DHT22;53739;44.224;22.528;2022-08-21T00:10:29;589.40;2432.00
66831;DHT22;53739;44.224;22.528;2022-08-21T00:12:55;589.50;2304.00
66831;DHT22;53739;44.224;22.528;2022-08-21T00:15:26;589.40;2432.00
66831;DHT22;53739;44.224;22.528;2022-08-21T00:17:54;589.50;2432.00
66831;DHT22;53739;44.224;22.528;2022-08-21T00:20:21;589.40;2432.00
66831;DHT22;53739;44.224;22.528;2022-08-21T00:22:47;589.40;2227.20
66831;DHT22;53739;44.224;22.528;2022-08-21T00:25:14;589.40;2124.80
66831;DHT22;53739;44.224;22.528;2022-08-21T00:27:40;589.50;2432.00
66831;DHT22;53739;44.224;22.528;2022-08-21T00:30:09;589.50;2432.00
66831;DHT22;53739;44.224;22.528;2022-08-21T00:32:37;589.50;2432.00
66831;DHT22;53739;44.224;22.528;2022-08-21T00:35:05;589.60;2432.00
66831;DHT22;53739;44.224;22.528;2022-08-21T00:37:31;589.70;2432.00
66831;DHT22;53739;44.224;22.528;2022-08-21T00:39:57;589.70;2432.00
66831;DHT22;53739;44.224;22.528;2022-08-21T00:42:23;614.40;2432.00
66831;DHT22;53739;44.224;22.528;2022-08-21T00:44:49;614.40;2432.00
66831;DHT22;53739;44.224;22.528;2022-08-21T00:47:18;614.40;2432.00
66831;DHT22;53739;44.224;22.528;2022-08-21T00:49:44;614.40;2432.00
66831;DHT22;53739;44.224;22.528;2022-08-21T00:52:22;614.50;2432.00
66831;DHT22;53739;44.224;22.528;2022-08-21T00:54:50;614.50;2432.00
66831;DHT22;53739;44.224;22.528;2022-08-21T00:57:21;614.40;2432.00
66831;DHT22;53739;44.224;22.528;2022-08-21T00:59:51;614.40;2432.00
66831;DHT22;53739;44.224;22.528;2022-08-21T01:02:18;614.40;2432.00
66831;DHT22;53739;44.224;22.528;2022-08-21T01:04:45;614.40;2432.00
66831;DHT22;53739;44.224;22.528;2022-08-21T01:07:12;614.40;2432.00
66831;DHT22;53739;44.224;22.528;2022-08-21T01:09:41;614.40;2432.00
66831;DHT22;53739;44.224;22.528;2022-08-21T01:12:08;614.40;2432.00
66831;DHT22;53739;44.224;22.528;2022-08-21T01:14:34;614.40;2432.00
66831;DHT22;53739;44.224;22.528;2022-08-21T01:17:02;589.70;2432.00
66831;DHT22;53739;44.224;22.528;2022-08-21T01:19:29;589.50;2124.80
66831;DHT22;53739;44.224;22.528;2022-08-21T01:21:55;589.50;2048.00
66831;DHT22;53739;44.224;22.528;2022-08-21T01:24:22;589.40;2432.00
66831;DHT22;53739;44.224;22.528;2022-08-21T01:26:49;589.40;2432.00
66831;DHT22;53739;44.224;22.528;2022-08-21T01:32:20;589.20;2432.00
66831;DHT22;53739;44.224;22.528;2022-08-21T01:34:49;589.20;2432.00
66831;DHT22;53739;44.224;22.528;2022-08-21T01:37:15;589.20;2432.00
66831;DHT22;53739;44.224;22.528;2022-08-21T01:39:42;589.20;2432.00
66831;DHT22;53739;44.224;22.528;2022-08-21T01:42:08;589.20;2432.00
66831;DHT22;53739;44.224;22.528;2022-08-21T01:44:34;589.20;2432.00
66831;DHT22;53739;44.224;22.528;2022-08-21T01:47:05;589.10;2432.00
66831;DHT22;53739;44.224;22.528;2022-08-21T01:49:31;589.10;2432.00
66831;DHT22;53739;44.224;22.528;2022-08-21T01:51:57;589.00;2432.00
66831;DHT22;53739;44.224;22.528;2022-08-21T01:54:23;589.00;2432.00
66831;DHT22;53739;44.224;22.528;2022-08-21T01:56:51;588.90;2432.00
66831;DHT22;53739;44.224;22.528;2022-08-21T01:59:18;588.80;2432.00
66831;DHT22;53739;44.224;22.528;2022-08-21T02:01:44;588.80;2432.00
66831;DHT22;53739;44.224;22.528;2022-08-21T02:04:11;588.80;2432.00
66831;DHT22;53739;44.224;22.528;2022-08-21T02:06:37;588.80;2432.00
66831;DHT22;53739;44.224;22.528;2022-08-21T02:09:04;588.80;2432.00
66831;DHT22;53739;44.224;22.528;2022-08-21T02:11:31;588.80;2432.00
66831;DHT22;53739;44.224;22.528;2022-08-21T02:13:58;588.80;2432.00
66831;DHT22;53739;44.224;22.528;2022-08-21T02:16:24;588.80;2432.00
66831;DHT22;53739;44.224;22.528;2022-08-21T02:18:50;588.80;2432.00
66831;DHT22;53739;44.224;22.528;2022-08-21T02:21:16;588.90;2432.00
66831;DHT22;53739;44.224;22.528;2022-08-21T02:23:42;588.90;2432.00
66831;DHT22;53739;44.224;22.528;2022-08-21T02:26:09;588.90;2432.00
66831;DHT22;53739;44.224;22.528;2022-08-21T02:28:36;589.00;2073.60
66831;DHT22;53739;44.224;22.528;2022-08-21T02:31:02;588.90;2432.00
66831;DHT22;53739;44.224;22.528;2022-08-21T02:33:28;588.90;2432.00
66831;DHT22;53739;44.224;22.528;2022-08-21T02:35:55;588.90;2432.00
66831;DHT22;53739;44.224;22.528;2022-08-21T02:38:28;588.90;2227.20
66831;DHT22;53739;44.224;22.528;2022-08-21T02:41:02;588.90;2048.00
66831;DHT22;53739;44.224;22.528;2022-08-21T02:43:28;589.00;2432.00
66831;DHT22;53739;44.224;22.528;2022-08-21T02:45:56;589.00;2432.00
66831;DHT22;53739;44.224;22.528;2022-08-21T02:48:25;589.10;2432.00
66831;DHT22;53739;44.224;22.528;2022-08-21T02:50:58;589.00;2124.80
66831;DHT22;53739;44.224;22.528;2022-08-21T02:53:25;588.90;2278.40
66831;DHT22;53739;44.224;22.528;2022-08-21T02:55:52;589.00;2432.00
66831;DHT22;53739;44.224;22.528;2022-08-21T02:58:25;589.10;2432.00
66831;DHT22;53739;44.224;22.528;2022-08-21T03:00:51;589.20;2432.00
66831;DHT22;53739;44.224;22.528;2022-08-21T03:03:18;589.10;2432.00
66831;DHT22;53739;44.224;22.528;2022-08-21T03:05:44;589.30;2432.00
66831;DHT22;53739;44.224;22.528;2022-08-21T03:08:12;589.30;2432.00
66831;DHT22;53739;44.224;22.528;2022-08-21T03:10:41;589.20;2432.00
66831;DHT22;53739;44.224;22.528;2022-08-21T03:13:08;589.30;2432.00
66831;DHT22;53739;44.224;22.528;2022-08-21T03:15:35;589.30;2432.00
66831;DHT22;53739;44.224;22.528;2022-08-21T03:18:01;589.30;2432.00
66831;DHT22;53739;44.224;22.528;2022-08-21T03:20:29;589.40;2432.00
66831;DHT22;53739;44.224;22.528;2022-08-21T03:22:58;589.40;2432.00
66831;DHT22;53739;44.224;22.528;2022-08-21T03:25:26;589.40;2432.00
66831;DHT22;53739;44.224;22.528;2022-08-21T03:27:52;589.40;2432.00
66831;DHT22;53739;44.224;22.528;2022-08-21T03:30:20;589.40;2432.00
66831;DHT22;53739;44.224;22.528;2022-08-21T03:32:47;589.40;2432.00
66831;DHT22;53739;44.224;22.528;2022-08-21T03:35:14;589.40;2432.00
66831;DHT22;53739;44.224;22.528;2022-08-21T03:37:41;589.30;2432.00
66831;DHT22;53739;44.224;22.528;2022-08-21T03:40:08;589.20;2432.00
66831;DHT22;53739;44.224;22.528;2022-08-21T03:42:34;589.20;2432.00
66831;DHT22;53739;44.224;22.528;2022-08-21T03:45:01;589.10;2432.00
66831;DHT22;53739;44.224;22.528;2022-08-21T03:47:28;589.00;2406.40
66831;DHT22;53739;44.224;22.528;2022-08-21T03:49:54;588.90;2432.00
66831;DHT22;53739;44.224;22.528;2022-08-21T03:52:19;588.80;2432.00
66831;DHT22;53739;44.224;22.528;2022-08-21T03:54:45;588.80;2432.00
66831;DHT22;53739;44.224;22.528;2022-08-21T03:57:12;564.00;2432.00
66831;DHT22;53739;44.224;22.528;2022-08-21T03:59:38;564.00;2432.00
66831;DHT22;53739;44.224;22.528;2022-08-21T04:02:06;564.00;2432.00
66831;DHT22;53739;44.224;22.528;2022-08-21T04:04:32;564.00;2432.00
66831;DHT22;53739;44.224;22.528;2022-08-21T04:06:59;564.10;2432.00
66831;DHT22;53739;44.224;22.528;2022-08-21T04:09:26;588.80;2432.00
66831;DHT22;53739;44.224;22.528;2022-08-21T04:11:52;588.80;2432.00
66831;DHT22;53739;44.224;22.528;2022-08-21T04:14:19;588.80;2432.00
66831;DHT22;53739;44.224;22.528;2022-08-21T04:16:45;588.80;2432.00
66831;DHT22;53739;44.224;22.528;2022-08-21T04:19:11;564.10;2432.00
66831;DHT22;53739;44.224;22.528;2022-08-21T04:21:39;564.00;2432.00
66831;DHT22;53739;44.224;22.528;2022-08-21T04:24:06;564.00;2432.00
66831;DHT22;53739;44.224;22.528;2022-08-21T04:26:34;564.00;2432.00
66831;DHT22;53739;44.224;22.528;2022-08-21T04:29:00;564.00;2432.00
66831;DHT22;53739;44.224;22.528;2022-08-21T04:31:26;564.00;2432.00
66831;DHT22;53739;44.224;22.528;2022-08-21T04:33:54;563.90;2432.00
66831;DHT22;53739;44.224;22.528;2022-08-21T04:36:20;563.90;2432.00
66831;DHT22;53739;44.224;22.528;2022-08-21T04:38:46;564.00;2432.00
66831;DHT22;53739;44.224;22.528;2022-08-21T04:41:12;564.00;2432.00
66831;DHT22;53739;44.224;22.528;2022-08-21T04:43:39;563.90;2432.00
66831;DHT22;53739;44.224;22.528;2022-08-21T04:46:05;564.00;2432.00
66831;DHT22;53739;44.224;22.528;2022-08-21T04:48:31;563.90;2432.00
66831;DHT22;53739;44.224;22.528;2022-08-21T04:51:15;563.90;2432.00
66831;DHT22;53739;44.224;22.528;2022-08-21T04:53:45;563.90;2432.00
66831;DHT22;53739;44.224;22.528;2022-08-21T04:56:22;563.80;2432.00
66831;DHT22;53739;44.224;22.528;2022-08-21T04:58:48;563.80;2432.00
66831;DHT22;53739;44.224;22.528;2022-08-21T05:01:20;563.70;2432.00
66831;DHT22;53739;44.224;22.528;2022-08-21T05:03:49;563.70;2432.00
66831;DHT22;53739;44.224;22.528;2022-08-21T05:06:16;563.80;2432.00
66831;DHT22;53739;44.224;22.528;2022-08-21T05:08:44;563.80;2432.00
66831;DHT22;53739;44.224;22.528;2022-08-21T05:11:10;563.80;2432.00
66831;DHT22;53739;44.224;22.528;2022-08-21T05:13:36;563.80;2432.00
66831;DHT22;53739;44.224;22.528;2022-08-21T05:16:03;563.80;2432.00
66831;DHT22;53739;44.224;22.528;2022-08-21T05:18:28;563.90;2432.00
66831;DHT22;53739;44.224;22.528;2022-08-21T05:20:54;563.90;2432.00
66831;DHT22;53739;44.224;22.528;2022-08-21T05:23:20;564.00;2432.00
66831;DHT22;53739;44.224;22.528;2022-08-21T05:25:46;564.00;2432.00
66831;DHT22;53739;44.224;22.528;2022-08-21T05:28:12;564.00;2432.00
66831;DHT22;53739;44.224;22.528;2022-08-21T05:30:38;588.80;2432.00
66831;DHT22;53739;44.224;22.528;2022-08-21T05:33:05;588.80;2432.00
66831;DHT22;53739;44.224;22.528;2022-08-21T05:35:32;588.90;2432.00
66831;DHT22;53739;44.224;22.528;2022-08-21T05:37:58;589.30;2432.00
66831;DHT22;53739;44.224;22.528;2022-08-21T05:40:26;589.40;2432.00
66831;DHT22;53739;44.224;22.528;2022-08-21T05:42:53;589.50;2432.00
66831;DHT22;53739;44.224;22.528;2022-08-21T05:45:19;614.40;2432.00
66831;DHT22;53739;44.224;22.528;2022-08-21T05:47:45;614.80;2432.00
66831;DHT22;53739;44.224;22.528;2022-08-21T05:50:11;614.80;2432.00
66831;DHT22;53739;44.224;22.528;2022-08-21T05:52:37;614.80;2432.00
66831;DHT22;53739;44.224;22.528;2022-08-21T05:55:04;614.90;2432.00
66831;DHT22;53739;44.224;22.528;2022-08-21T05:57:30;615.00;2432.00
66831;DHT22;53739;44.224;22.528;2022-08-21T05:59:55;615.10;2432.00
66831;DHT22;53739;44.224;22.528;2022-08-21T06:02:22;615.10;2432.00
66831;DHT22;53739;44.224;22.528;2022-08-21T06:04:47;615.20;2432.00
66831;DHT22;53739;44.224;22.528;2022-08-21T06:07:16;615.20;2432.00
66831;DHT22;53739;44.224;22.528;2022-08-21T06:09:42;615.10;2432.00
66831;DHT22;53739;44.224;22.528;2022-08-21T06:12:10;615.10;2432.00
66831;DHT22;53739;44.224;22.528;2022-08-21T06:14:38;615.30;2432.00
66831;DHT22;53739;44.224;22.528;2022-08-21T06:17:06;615.10;2432.00
66831;DHT22;53739;44.224;22.528;2022-08-21T06:19:32;615.20;2432.00
66831;DHT22;53739;44.224;22.528;2022-08-21T06:21:58;615.20;2432.00
66831;DHT22;53739;44.224;22.528;2022-08-21T06:24:25;615.00;2432.00
66831;DHT22;53739;44.224;22.528;2022-08-21T06:26:51;615.20;2432.00
66831;DHT22;53739;44.224;22.528;2022-08-21T06:29:17;615.30;2432.00
66831;DHT22;53739;44.224;22.528;2022-08-21T06:31:46;615.30;2432.00
66831;DHT22;53739;44.224;22.528;2022-08-21T06:34:11;640.10;2432.00
66831;DHT22;53739;44.224;22.528;2022-08-21T06:36:38;640.10;2432.00
66831;DHT22;53739;44.224;22.528;2022-08-21T06:39:04;615.30;2432.00
66831;DHT22;53739;44.224;22.528;2022-08-21T06:41:30;640.10;2432.00
66831;DHT22;53739;44.224;22.528;2022-08-21T06:43:57;640.10;2432.00
66831;DHT22;53739;44.224;22.528;2022-08-21T06:46:28;640.20;2432.00
66831;DHT22;53739;44.224;22.528;2022-08-21T06:48:55;640.10;2432.00
66831;DHT22;53739;44.224;22.528;2022-08-21T06:51:21;640.20;2432.00
66831;DHT22;53739;44.224;22.528;2022-08-21T06:53:48;640.20;2432.00
66831;DHT22;53739;44.224;22.528;2022-08-21T06:56:14;640.30;2432.00
66831;DHT22;53739;44.224;22.528;2022-08-21T06:58:40;640.20;2432.00
66831;DHT22;53739;44.224;22.528;2022-08-21T07:01:05;640.50;2432.00
66831;DHT22;53739;44.224;22.528;2022-08-21T07:03:37;640.50;2432.00
66831;DHT22;53739;44.224;22.528;2022-08-21T07:06:04;640.50;2432.00
66831;DHT22;53739;44.224;22.528;2022-08-21T07:08:31;640.70;2432.00
66831;DHT22;53739;44.224;22.528;2022-08-21T07:10:58;640.60;2432.00
66831;DHT22;53739;44.224;22.528;2022-08-21T07:13:25;665.70;2432.00
66831;DHT22;53739;44.224;22.528;2022-08-21T07:15:51;666.20;2432.00
66831;DHT22;53739;44.224;22.528;2022-08-21T07:18:17;666.30;2432.00
66831;DHT22;53739;44.224;22.528;2022-08-21T07:20:43;666.50;2432.00
66831;DHT22;53739;44.224;22.528;2022-08-21T07:23:17;691.50;2432.00
66831;DHT22;53739;44.224;22.528;2022-08-21T07:25:44;691.80;2432.00
66831;DHT22;53739;44.224;22.528;2022-08-21T07:28:10;691.70;2432.00
66831;DHT22;53739;44.224;22.528;2022-08-21T07:30:36;691.70;2432.00
66831;DHT22;53739;44.224;22.528;2022-08-21T07:33:03;691.60;2432.00
66831;DHT22;53739;44.224;22.528;2022-08-21T07:35:29;691.40;2432.00
66831;DHT22;53739;44.224;22.528;2022-08-21T07:37:56;666.30;2432.00
66831;DHT22;53739;44.224;22.528;2022-08-21T07:40:23;665.90;2432.00
66831;DHT22;53739;44.224;22.528;2022-08-21T07:42:48;665.60;2432.00
66831;DHT22;53739;44.224;22.528;2022-08-21T07:45:19;640.70;2432.00
66831;DHT22;53739;44.224;22.528;2022-08-21T07:47:45;640.70;2432.00
66831;DHT22;53739;44.224;22.528;2022-08-21T07:50:13;640.60;2432.00
66831;DHT22;53739;44.224;22.528;2022-08-21T07:52:40;640.60;2432.00
66831;DHT22;53739;44.224;22.528;2022-08-21T07:55:08;640.60;2432.00
66831;DHT22;53739;44.224;22.528;2022-08-21T07:57:35;640.50;2432.00
66831;DHT22;53739;44.224;22.528;2022-08-21T08:00:01;640.40;2432.00
66831;DHT22;53739;44.224;22.528;2022-08-21T08:02:29;640.40;2432.00
66831;DHT22;53739;44.224;22.528;2022-08-21T08:05:00;640.50;2432.00
66831;DHT22;53739;44.224;22.528;2022-08-21T08:07:26;640.40;2432.00
66831;DHT22;53739;44.224;22.528;2022-08-21T08:09:52;640.40;2432.00
66831;DHT22;53739;44.224;22.528;2022-08-21T08:12:18;640.60;2432.00
66831;DHT22;53739;44.224;22.528;2022-08-21T08:14:46;665.80;2432.00
66831;DHT22;53739;44.224;22.528;2022-08-21T08:17:12;666.50;2432.00
66831;DHT22;53739;44.224;22.528;2022-08-21T08:19:39;691.70;2432.00
66831;DHT22;53739;44.224;22.528;2022-08-21T08:22:19;691.60;2432.00
66831;DHT22;53739;44.224;22.528;2022-08-21T08:24:46;692.00;2432.00
66831;DHT22;53739;44.224;22.528;2022-08-21T08:27:13;717.00;2432.00
66831;DHT22;53739;44.224;22.528;2022-08-21T08:29:39;717.50;2432.00
66831;DHT22;53739;44.224;22.528;2022-08-21T08:32:05;717.70;2432.00
66831;DHT22;53739;44.224;22.528;2022-08-21T08:34:34;717.60;2432.00
66831;DHT22;53739;44.224;22.528;2022-08-21T08:36:59;742.50;2432.00
66831;DHT22;53739;44.224;22.528;2022-08-21T08:39:26;742.50;2432.00
66831;DHT22;53739;44.224;22.528;2022-08-21T08:42:03;717.70;2432.00
66831;DHT22;53739;44.224;22.528;2022-08-21T08:44:30;742.60;2432.00
66831;DHT22;53739;44.224;22.528;2022-08-21T08:46:56;742.80;2432.00
66831;DHT22;53739;44.224;22.528;2022-08-21T08:49:37;742.70;2432.00
66831;DHT22;53739;44.224;22.528;2022-08-21T08:54:55;742.80;2432.00
66831;DHT22;53739;44.224;22.528;2022-08-21T08:57:23;742.90;2432.00
66831;DHT22;53739;44.224;22.528;2022-08-21T08:59:53;742.80;2432.00
66831;DHT22;53739;44.224;22.528;2022-08-21T09:02:21;742.70;2432.00
66831;DHT22;53739;44.224;22.528;2022-08-21T09:04:50;742.80;2432.00
66831;DHT22;53739;44.224;22.528;2022-08-21T09:23:57;717.60;2432.00
66831;DHT22;53739;44.224;22.528;2022-08-21T09:26:42;717.50;2432.00
66831;DHT22;53739;44.224;22.528;2022-08-21T09:29:11;717.50;2432.00
66831;DHT22;53739;44.224;22.528;2022-08-21T09:31:37;717.40;2432.00
66831;DHT22;53739;44.224;22.528;2022-08-21T09:34:11;717.40;2432.00
66831;DHT22;53739;44.224;22.528;2022-08-21T09:36:41;742.50;2432.00
66831;DHT22;53739;44.224;22.528;2022-08-21T09:39:10;742.80;2432.00
66831;DHT22;53739;44.224;22.528;2022-08-21T09:41:37;743.00;2432.00
66831;DHT22;53739;44.224;22.528;2022-08-21T09:44:05;743.30;2432.00
66831;DHT22;53739;44.224;22.528;2022-08-21T09:46:31;768.40;2432.00
66831;DHT22;53739;44.224;22.528;2022-08-21T09:49:00;768.80;2432.00
66831;DHT22;53739;44.224;22.528;2022-08-21T09:53:58;768.80;2432.00
66831;DHT22;53739;44.224;22.528;2022-08-21T09:56:39;793.60;2432.00
66831;DHT22;53739;44.224;22.528;2022-08-21T09:59:32;768.80;2432.00
66831;DHT22;53739;44.224;22.528;2022-08-21T10:02:01;793.80;2432.00
66831;DHT22;53739;44.224;22.528;2022-08-21T10:04:34;793.70;2432.00
66831;DHT22;53739;44.224;22.528;2022-08-21T10:07:14;794.20;2432.00
66831;DHT22;53739;44.224;22.528;2022-08-21T10:09:43;794.40;2432.00
66831;DHT22;53739;44.224;22.528;2022-08-21T10:12:14;794.50;2432.00
66831;DHT22;53739;44.224;22.528;2022-08-21T10:14:50;819.30;2432.00
66831;DHT22;53739;44.224;22.528;2022-08-21T10:17:54;819.70;2432.00
66831;DHT22;53739;44.224;22.528;2022-08-21T10:20:42;819.60;2432.00
66831;DHT22;53739;44.224;22.528;2022-08-21T10:40:47;793.90;2432.00
66831;DHT22;53739;44.224;22.528;2022-08-21T10:48:37;768.70;2432.00
66831;DHT22;53739;44.224;22.528;2022-08-21T10:51:15;768.50;2432.00
66831;DHT22;53739;44.224;22.528;2022-08-21T10:56:22;768.30;2432.00
66831;DHT22;53739;44.224;22.528;2022-08-21T10:59:03;768.30;2432.00
66831;DHT22;53739;44.224;22.528;2022-08-21T11:04:20;743.20;2432.00
66831;DHT22;53739;44.224;22.528;2022-08-21T11:06:56;742.60;2432.00
66831;DHT22;53739;44.224;22.528;2022-08-21T11:09:25;691.80;2432.00
66831;DHT22;53739;44.224;22.528;2022-08-21T11:17:13;588.80;2432.00
66831;DHT22;53739;44.224;22.528;2022-08-21T11:19:45;563.70;2432.00
66831;DHT22;53739;44.224;22.528;2022-08-21T11:28:08;563.30;2432.00
66831;DHT22;53739;44.224;22.528;2022-08-21T11:37:20;563.40;2432.00
66831;DHT22;53739;44.224;22.528;2022-08-21T11:40:03;563.60;2432.00
66831;DHT22;53739;44.224;22.528;2022-08-21T11:42:43;563.90;2432.00
66831;DHT22;53739;44.224;22.528;2022-08-21T12:01:50;563.50;2432.00
66831;DHT22;53739;44.224;22.528;2022-08-21T12:04:34;563.60;2432.00
66831;DHT22;53739;44.224;22.528;2022-08-21T12:07:16;563.70;2432.00
66831;DHT22;53739;44.224;22.528;2022-08-21T12:09:53;563.60;2432.00
66831;DHT22;53739;44.224;22.528;2022-08-21T12:12:35;563.40;2432.00
66831;DHT22;53739;44.224;22.528;2022-08-21T12:15:15;563.50;2432.00
66831;DHT22;53739;44.224;22.528;2022-08-21T12:18:00;563.40;2432.00
66831;DHT22;53739;44.224;22.528;2022-08-21T13:37:41;589.00;2432.00
66831;DHT22;53739;44.224;22.528;2022-08-21T13:47:24;589.50;2432.00
66831;DHT22;53739;44.224;22.528;2022-08-21T13:50:22;589.50;2048.00
66831;DHT22;53739;44.224;22.528;2022-08-21T14:00:24;614.90;2432.00
66831;DHT22;53739;44.224;22.528;2022-08-21T14:02:54;614.90;2432.00
66831;DHT22;53739;44.224;22.528;2022-08-21T14:05:37;615.00;2432.00
66831;DHT22;53739;44.224;22.528;2022-08-21T14:08:14;615.00;2432.00
66831;DHT22;53739;44.224;22.528;2022-08-21T14:10:44;615.00;2432.00
66831;DHT22;53739;44.224;22.528;2022-08-21T14:21:32;614.80;2432.00
66831;DHT22;53739;44.224;22.528;2022-08-21T14:24:09;614.80;2432.00
66831;DHT22;53739;44.224;22.528;2022-08-21T14:26:48;614.70;2432.00
66831;DHT22;53739;44.224;22.528;2022-08-21T14:29:19;614.70;2432.00
66831;DHT22;53739;44.224;22.528;2022-08-21T14:31:53;614.80;2432.00
66831;DHT22;53739;44.224;22.528;2022-08-21T14:34:21;615.00;2432.00
66831;DHT22;53739;44.224;22.528;2022-08-21T14:36:48;615.30;2432.00
66831;DHT22;53739;44.224;22.528;2022-08-21T14:39:15;640.00;2432.00
66831;DHT22;53739;44.224;22.528;2022-08-21T14:41:41;640.20;2432.00
66831;DHT22;53739;44.224;22.528;2022-08-21T14:44:09;640.50;2432.00
66831;DHT22;53739;44.224;22.528;2022-08-21T14:46:35;640.60;2432.00
66831;DHT22;53739;44.224;22.528;2022-08-21T14:49:02;640.80;2432.00
66831;DHT22;53739;44.224;22.528;2022-08-21T14:51:28;665.60;2432.00
66831;DHT22;53739;44.224;22.528;2022-08-21T14:53:54;665.80;2432.00
66831;DHT22;53739;44.224;22.528;2022-08-21T14:56:20;665.80;2432.00
66831;DHT22;53739;44.224;22.528;2022-08-21T14:58:49;666.10;2432.00
66831;DHT22;53739;44.224;22.528;2022-08-21T15:01:17;666.20;2432.00
66831;DHT22;53739;44.224;22.528;2022-08-21T15:03:44;666.30;2432.00
66831;DHT22;53739;44.224;22.528;2022-08-21T15:06:10;691.20;2432.00
66831;DHT22;53739;44.224;22.528;2022-08-21T15:08:36;691.20;2432.00
66831;DHT22;53739;44.224;22.528;2022-08-21T15:11:03;666.50;2432.00
66831;DHT22;53739;44.224;22.528;2022-08-21T15:13:30;666.50;2432.00
66831;DHT22;53739;44.224;22.528;2022-08-21T15:15:56;666.30;2432.00
66831;DHT22;53739;44.224;22.528;2022-08-21T15:18:25;666.20;2432.00
66831;DHT22;53739;44.224;22.528;2022-08-21T15:20:51;666.20;2432.00
66831;DHT22;53739;44.224;22.528;2022-08-21T15:23:17;666.20;2432.00
66831;DHT22;53739;44.224;22.528;2022-08-21T15:25:45;666.20;2432.00
66831;DHT22;53739;44.224;22.528;2022-08-21T15:28:12;666.30;2432.00
66831;DHT22;53739;44.224;22.528;2022-08-21T15:30:40;666.30;2432.00
66831;DHT22;53739;44.224;22.528;2022-08-21T15:33:06;666.40;2432.00
66831;DHT22;53739;44.224;22.528;2022-08-21T15:35:33;666.30;2432.00
66831;DHT22;53739;44.224;22.528;2022-08-21T15:37:59;666.30;2432.00
66831;DHT22;53739;44.224;22.528;2022-08-21T15:40:25;666.20;2432.00
66831;DHT22;53739;44.224;22.528;2022-08-21T15:42:56;666.20;2432.00
66831;DHT22;53739;44.224;22.528;2022-08-21T15:45:22;666.20;2432.00
66831;DHT22;53739;44.224;22.528;2022-08-21T15:47:49;666.20;2432.00
66831;DHT22;53739;44.224;22.528;2022-08-21T15:50:15;666.10;2432.00
66831;DHT22;53739;44.224;22.528;2022-08-21T15:52:41;666.10;2432.00
66831;DHT22;53739;44.224;22.528;2022-08-21T15:55:08;666.00;2432.00
66831;DHT22;53739;44.224;22.528;2022-08-21T15:57:35;665.90;2432.00
66831;DHT22;53739;44.224;22.528;2022-08-21T16:00:25;666.00;2432.00
66831;DHT22;53739;44.224;22.528;2022-08-21T16:02:53;666.00;2432.00
66831;DHT22;53739;44.224;22.528;2022-08-21T16:05:21;666.00;2432.00
66831;DHT22;53739;44.224;22.528;2022-08-21T16:07:48;666.00;2432.00
66831;DHT22;53739;44.224;22.528;2022-08-21T16:10:17;665.90;2432.00
66831;DHT22;53739;44.224;22.528;2022-08-21T16:12:53;665.90;2432.00
66831;DHT22;53739;44.224;22.528;2022-08-21T16:15:24;665.70;2432.00
66831;DHT22;53739;44.224;22.528;2022-08-21T16:17:51;640.90;2432.00
66831;DHT22;53739;44.224;22.528;2022-08-21T16:20:26;640.90;2432.00
66831;DHT22;53739;44.224;22.528;2022-08-21T16:22:53;640.90;2432.00
66831;DHT22;53739;44.224;22.528;2022-08-21T16:25:20;640.70;2432.00
66831;DHT22;53739;44.224;22.528;2022-08-21T16:27:50;640.70;2432.00
66831;DHT22;53739;44.224;22.528;2022-08-21T16:30:18;640.70;2432.00
66831;DHT22;53739;44.224;22.528;2022-08-21T16:32:44;640.70;2432.00
66831;DHT22;53739;44.224;22.528;2022-08-21T16:35:13;640.70;2432.00
66831;DHT22;53739;44.224;22.528;2022-08-21T16:37:40;640.70;2432.00
66831;DHT22;53739;44.224;22.528;2022-08-21T16:40:06;640.60;2432.00
66831;DHT22;53739;44.224;22.528;2022-08-21T16:42:35;640.60;2432.00
66831;DHT22;53739;44.224;22.528;2022-08-21T16:45:01;640.50;2432.00
66831;DHT22;53739;44.224;22.528;2022-08-21T16:47:30;640.50;2432.00
66831;DHT22;53739;44.224;22.528;2022-08-21T16:49:59;640.40;2432.00
66831;DHT22;53739;44.224;22.528;2022-08-21T16:52:25;640.40;2432.00
66831;DHT22;53739;44.224;22.528;2022-08-21T16:54:51;640.40;2432.00
66831;DHT22;53739;44.224;22.528;2022-08-21T16:57:17;640.40;2432.00
66831;DHT22;53739;44.224;22.528;2022-08-21T16:59:43;640.40;2432.00
66831;DHT22;53739;44.224;22.528;2022-08-21T17:02:37;640.40;2432.00
66831;DHT22;53739;44.224;22.528;2022-08-21T17:05:04;640.20;2432.00
66831;DHT22;53739;44.224;22.528;2022-08-21T17:07:31;640.20;2432.00
66831;DHT22;53739;44.224;22.528;2022-08-21T17:09:57;640.20;2432.00
66831;DHT22;53739;44.224;22.528;2022-08-21T17:12:23;640.10;2432.00
66831;DHT22;53739;44.224;22.528;2022-08-21T17:14:49;640.10;2432.00
66831;DHT22;53739;44.224;22.528;2022-08-21T17:17:15;640.00;2432.00
66831;DHT22;53739;44.224;22.528;2022-08-21T17:19:42;640.00;2432.00
66831;DHT22;53739;44.224;22.528;2022-08-21T17:22:08;640.00;2432.00
66831;DHT22;53739;44.224;22.528;2022-08-21T17:24:35;640.00;2432.00
66831;DHT22;53739;44.224;22.528;2022-08-21T17:27:02;615.30;2432.00
66831;DHT22;53739;44.224;22.528;2022-08-21T17:29:37;615.30;2432.00
66831;DHT22;53739;44.224;22.528;2022-08-21T17:32:10;615.30;2432.00
66831;DHT22;53739;44.224;22.528;2022-08-21T17:34:37;615.10;2432.00
66831;DHT22;53739;44.224;22.528;2022-08-21T17:37:04;615.10;2432.00
66831;DHT22;53739;44.224;22.528;2022-08-21T17:39:31;615.00;2432.00
66831;DHT22;53739;44.224;22.528;2022-08-21T17:42:00;615.00;2432.00
66831;DHT22;53739;44.224;22.528;2022-08-21T17:44:28;614.80;2432.00
66831;DHT22;53739;44.224;22.528;2022-08-21T17:46:54;614.80;2432.00
66831;DHT22;53739;44.224;22.528;2022-08-21T17:49:20;614.80;2432.00
66831;DHT22;53739;44.224;22.528;2022-08-21T17:51:49;614.80;2432.00